Pensacola, Florida
Current Conditions -  °F | °C
As of 6:53 PM on Thursday 27 Nov 2014 (Local Time) from KPNS Reporting Station
Clear Clear  
Wind Chill: 45°   Ceiling: Unl
Heat Index: 49°   Visibility: 10mi
Dew Point: 30°   Wind: 9mph
Humidity: 48%   Direction: 350°N
Pressure: 30.4"   Gusts: NA
Location:  30.42°N, 87.22°W
Report Text: KPNS 280053Z AUTO 35008KT 10SM CLR 09/M01 A3040 RMK AO2 SLP297 T00941011
Loading
Personal Weather Stations






























Interactive Weather Map New forecast layout! Learn more

10-Day Weather Forecast

Advertisements
Track Severe Weather on mobile